Time;durP1;ratioP1;P1;durP2;ratioP2;P2;SDS_P1;SDS_P2;PMS_P1;PMS_P2;Temp;Humidity;BMP_temperature;BMP_pressure;BME280_temperature;BME280_humidity;BME280_pressure;Samples;Min_cycle;Max_cycle;Signal;HPM_P1;HPM_P2
2021/05/19 00:00:08;;;;;;;0.00;0.00;;;;;;;;;;5079286;28;20706;-64
2021/05/19 00:02:34;;;;;;;1.67;0.80;;;;;;;;;;5078197;28;20169;-64
2021/05/19 00:05:01;;;;;;;0.37;0.37;;;;;;;;;;5076855;28;20257;-65
2021/05/19 00:07:28;;;;;;;2.57;1.10;;;;;;;;;;5079264;28;20173;-65
2021/05/19 00:09:54;;;;;;;0.00;0.00;;;;;;;;;;5077288;28;20192;-65
2021/05/19 00:12:21;;;;;;;0.20;0.20;;;;;;;;;;5060415;28;20190;-65
2021/05/19 00:14:48;;;;;;;0.00;0.00;;;;;;;;;;5074364;28;20190;-63
2021/05/19 00:17:17;;;;;;;0.60;0.20;;;;;;;;;;5075078;28;20178;-64
2021/05/19 00:19:44;;;;;;;0.20;0.20;;;;;;;;;;5076854;28;21029;-65
2021/05/19 00:22:10;;;;;;;0.00;0.00;;;;;;;;;;5077115;28;20309;-63
2021/05/19 00:24:37;;;;;;;1.03;1.03;;;;;;;;;;5076205;28;20174;-65
2021/05/19 00:27:03;;;;;;;0.03;0.03;;;;;;;;;;5077902;28;20170;-64
2021/05/19 00:29:30;;;;;;;0.60;0.40;;;;;;;;;;5075753;28;20880;-65
2021/05/19 00:31:58;;;;;;;0.40;0.00;;;;;;;;;;5077785;28;20179;-64
2021/05/19 00:34:24;;;;;;;0.73;0.73;;;;;;;;;;5078083;28;20817;-65
2021/05/19 00:36:51;;;;;;;0.03;0.03;;;;;;;;;;5079771;28;20458;-64
2021/05/19 00:39:18;;;;;;;0.00;0.00;;;;;;;;;;5078328;28;20207;-65
2021/05/19 00:41:44;;;;;;;0.00;0.00;;;;;;;;;;5078210;28;20221;-64
2021/05/19 00:44:13;;;;;;;0.00;0.00;;;;;;;;;;5079102;28;20187;-65
2021/05/19 00:46:46;;;;;;;1.07;0.63;;;;;;;;;;5077447;28;20195;-64
2021/05/19 00:49:13;;;;;;;0.30;0.30;;;;;;;;;;5073941;28;20212;-64
2021/05/19 00:51:40;;;;;;;0.30;0.30;;;;;;;;;;5076306;28;20210;-65
2021/05/19 00:54:06;;;;;;;1.20;1.10;;;;;;;;;;5075031;28;20282;-65
2021/05/19 00:56:33;;;;;;;0.00;0.00;;;;;;;;;;5056119;28;20193;-65
2021/05/19 00:59:01;;;;;;;0.17;0.17;;;;;;;;;;5077291;28;20264;-65
2021/05/19 01:01:35;;;;;;;0.37;0.30;;;;;;;;;;5071723;28;20191;-64
2021/05/19 01:04:02;;;;;;;0.03;0.03;;;;;;;;;;5075403;28;20611;-65
2021/05/19 01:06:54;;;;;;;0.00;0.00;;;;;;;;;;5072479;28;20188;-65
2021/05/19 01:12:00;;;;;;;0.00;0.00;;;;;;;;;;5074504;28;20630;-65
2021/05/19 01:14:27;;;;;;;0.00;0.00;;;;;;;;;;5076588;28;20182;-65
2021/05/19 01:16:58;;;;;;;0.00;0.00;;;;;;;;;;5080547;28;20854;-65
2021/05/19 01:19:26;;;;;;;4.03;1.87;;;;;;;;;;5080722;28;20190;-65
2021/05/19 01:21:53;;;;;;;0.00;0.00;;;;;;;;;;5078811;28;20185;-65
2021/05/19 01:24:20;;;;;;;0.00;0.00;;;;;;;;;;5090569;28;20185;-64
2021/05/19 01:26:46;;;;;;;0.00;0.00;;;;;;;;;;5076952;28;20284;-64
2021/05/19 01:29:13;;;;;;;0.00;0.00;;;;;;;;;;5078132;28;20847;-64
2021/05/19 01:31:40;;;;;;;10.50;0.93;;;;;;;;;;5063555;28;20190;-64
2021/05/19 01:34:06;;;;;;;0.00;0.00;;;;;;;;;;5062669;28;20667;-64
2021/05/19 01:36:34;;;;;;;0.00;0.00;;;;;;;;;;5080682;28;20183;-64
2021/05/19 01:39:01;;;;;;;1.50;0.77;;;;;;;;;;5081247;28;21201;-64
2021/05/19 01:41:29;;;;;;;1.37;1.37;;;;;;;;;;5061004;28;20597;-64
2021/05/19 01:43:56;;;;;;;0.00;0.00;;;;;;;;;;5058513;28;20190;-64
2021/05/19 01:46:23;;;;;;;1.03;0.63;;;;;;;;;;5098655;28;20181;-64
2021/05/19 01:48:55;;;;;;;1.27;0.30;;;;;;;;;;5075691;28;20189;-64
2021/05/19 01:51:22;;;;;;;0.60;0.40;;;;;;;;;;5055462;28;20282;-64
2021/05/19 01:53:49;;;;;;;0.00;0.00;;;;;;;;;;5073945;28;20395;-64
2021/05/19 01:56:15;;;;;;;0.20;0.10;;;;;;;;;;5077906;28;20548;-64
2021/05/19 01:58:43;;;;;;;0.00;0.00;;;;;;;;;;5075327;28;20238;-64
2021/05/19 02:01:11;;;;;;;0.00;0.00;;;;;;;;;;5073835;28;20266;-64
2021/05/19 02:03:38;;;;;;;0.00;0.00;;;;;;;;;;5076794;28;20197;-64
2021/05/19 02:06:05;;;;;;;0.00;0.00;;;;;;;;;;5078765;28;20182;-64
2021/05/19 02:08:31;;;;;;;2.20;0.93;;;;;;;;;;5076280;28;20190;-64
2021/05/19 02:10:59;;;;;;;1.27;0.53;;;;;;;;;;5072821;28;20611;-64
2021/05/19 02:13:26;;;;;;;0.00;0.00;;;;;;;;;;5081626;28;20198;-64
2021/05/19 02:15:52;;;;;;;0.00;0.00;;;;;;;;;;5080191;28;20202;-64
2021/05/19 02:18:20;;;;;;;0.53;0.53;;;;;;;;;;5076438;28;20251;-64
2021/05/19 02:20:47;;;;;;;2.23;2.07;;;;;;;;;;5079356;28;20628;-64
2021/05/19 02:23:16;;;;;;;0.87;0.60;;;;;;;;;;5079369;28;20240;-64
2021/05/19 02:25:43;;;;;;;0.00;0.00;;;;;;;;;;5081013;28;20655;-64
2021/05/19 02:28:13;;;;;;;0.00;0.00;;;;;;;;;;5081146;28;20170;-64
2021/05/19 02:30:39;;;;;;;0.10;0.10;;;;;;;;;;5074559;28;20236;-64
2021/05/19 02:33:09;;;;;;;2.77;0.40;;;;;;;;;;5081584;28;20441;-64
2021/05/19 02:35:35;;;;;;;0.00;0.00;;;;;;;;;;5080238;28;20404;-65
2021/05/19 02:38:02;;;;;;;0.00;0.00;;;;;;;;;;5080816;28;20189;-64
2021/05/19 02:40:30;;;;;;;0.00;0.00;;;;;;;;;;5086783;28;20526;-64
2021/05/19 02:42:56;;;;;;;0.20;0.20;;;;;;;;;;5084909;28;20187;-64
2021/05/19 02:45:23;;;;;;;0.67;0.30;;;;;;;;;;5079544;28;20349;-64
2021/05/19 02:47:49;;;;;;;0.00;0.00;;;;;;;;;;5077876;28;20174;-64
2021/05/19 02:50:16;;;;;;;0.00;0.00;;;;;;;;;;5076442;28;20185;-64
2021/05/19 02:52:43;;;;;;;0.40;0.40;;;;;;;;;;5077106;28;20270;-64
2021/05/19 02:55:10;;;;;;;0.67;0.67;;;;;;;;;;5074787;28;20185;-64
2021/05/19 02:57:37;;;;;;;0.00;0.00;;;;;;;;;;5075277;28;20187;-64
2021/05/19 03:00:05;;;;;;;15.40;3.30;;;;;;;;;;5076198;28;20221;-64
2021/05/19 03:02:31;;;;;;;0.20;0.20;;;;;;;;;;5077812;28;20798;-64
2021/05/19 03:04:58;;;;;;;0.00;0.00;;;;;;;;;;5070291;28;20272;-64
2021/05/19 03:07:24;;;;;;;0.00;0.00;;;;;;;;;;5075373;28;20198;-64
2021/05/19 03:09:51;;;;;;;0.47;0.47;;;;;;;;;;5077805;28;20189;-64
2021/05/19 03:12:17;;;;;;;0.00;0.00;;;;;;;;;;5074711;28;20198;-64
2021/05/19 03:14:44;;;;;;;0.00;0.00;;;;;;;;;;5070248;28;20187;-64
2021/05/19 03:17:11;;;;;;;0.47;0.47;;;;;;;;;;5075253;28;20233;-64
2021/05/19 03:19:37;;;;;;;0.00;0.00;;;;;;;;;;5080385;28;20202;-64
2021/05/19 03:22:04;;;;;;;0.33;0.33;;;;;;;;;;5102410;27;20189;-64
2021/05/19 03:24:31;;;;;;;0.60;0.40;;;;;;;;;;5078192;28;20186;-64
2021/05/19 03:26:57;;;;;;;0.00;0.00;;;;;;;;;;5083405;28;20197;-64
2021/05/19 03:29:24;;;;;;;0.00;0.00;;;;;;;;;;5079240;28;20240;-64
2021/05/19 03:31:50;;;;;;;0.00;0.00;;;;;;;;;;5082404;28;20180;-64
2021/05/19 03:34:17;;;;;;;5.70;1.20;;;;;;;;;;5071079;28;20183;-63
2021/05/19 03:36:44;;;;;;;0.10;0.10;;;;;;;;;;5071092;28;20190;-64
2021/05/19 03:39:11;;;;;;;0.00;0.00;;;;;;;;;;5078108;28;20205;-63
2021/05/19 03:41:38;;;;;;;0.00;0.00;;;;;;;;;;5075222;28;20193;-63
2021/05/19 03:44:05;;;;;;;0.00;0.00;;;;;;;;;;5069497;28;20174;-63
2021/05/19 03:46:32;;;;;;;2.97;1.23;;;;;;;;;;5073823;28;20385;-63
2021/05/19 03:49:01;;;;;;;0.00;0.00;;;;;;;;;;5075133;28;20436;-63
2021/05/19 03:51:28;;;;;;;0.00;0.00;;;;;;;;;;5073538;28;20186;-64
2021/05/19 03:53:54;;;;;;;0.13;0.13;;;;;;;;;;5073400;28;20609;-63
2021/05/19 03:56:21;;;;;;;1.03;0.27;;;;;;;;;;5072226;28;20271;-64
2021/05/19 03:58:48;;;;;;;0.10;0.10;;;;;;;;;;5076901;28;20247;-64
2021/05/19 04:01:14;;;;;;;0.00;0.00;;;;;;;;;;5073262;28;20268;-64
2021/05/19 04:03:42;;;;;;;0.53;0.43;;;;;;;;;;5074432;28;20373;-64
2021/05/19 04:06:09;;;;;;;0.00;0.00;;;;;;;;;;5073680;28;20231;-63
2021/05/19 04:08:38;;;;;;;0.00;0.00;;;;;;;;;;5075513;28;20190;-63
2021/05/19 04:11:06;;;;;;;0.00;0.00;;;;;;;;;;5072654;28;20997;-63
2021/05/19 04:13:33;;;;;;;0.00;0.00;;;;;;;;;;5073361;28;20197;-63
2021/05/19 04:16:00;;;;;;;1.27;0.93;;;;;;;;;;5070050;28;20679;-63
2021/05/19 04:18:26;;;;;;;0.00;0.00;;;;;;;;;;5073382;28;20697;-63
2021/05/19 04:20:53;;;;;;;0.67;0.67;;;;;;;;;;5073826;28;20286;-64
2021/05/19 04:23:22;;;;;;;0.67;0.63;;;;;;;;;;5071799;28;20187;-63
2021/05/19 04:25:49;;;;;;;1.23;0.20;;;;;;;;;;5070470;28;20183;-64
2021/05/19 04:28:15;;;;;;;6.67;0.83;;;;;;;;;;5072700;28;20189;-64
2021/05/19 04:30:42;;;;;;;3.57;3.30;;;;;;;;;;5073420;28;20192;-63
2021/05/19 04:33:09;;;;;;;0.40;0.40;;;;;;;;;;5072645;28;20179;-63
2021/05/19 04:35:35;;;;;;;0.00;0.00;;;;;;;;;;5073041;28;20194;-63
2021/05/19 04:38:02;;;;;;;0.00;0.00;;;;;;;;;;5075553;28;20178;-63
2021/05/19 04:40:28;;;;;;;0.20;0.20;;;;;;;;;;5077955;28;20185;-63
2021/05/19 04:42:55;;;;;;;0.43;0.33;;;;;;;;;;5069359;28;20671;-63
2021/05/19 04:45:22;;;;;;;0.00;0.00;;;;;;;;;;5073950;28;20278;-63
2021/05/19 04:47:49;;;;;;;0.00;0.00;;;;;;;;;;5073177;28;20637;-63
2021/05/19 04:50:15;;;;;;;0.37;0.37;;;;;;;;;;5075412;28;20983;-63
2021/05/19 04:52:42;;;;;;;0.00;0.00;;;;;;;;;;5071512;28;20255;-63
2021/05/19 04:55:09;;;;;;;1.07;1.07;;;;;;;;;;5075624;28;20190;-64
2021/05/19 04:57:37;;;;;;;0.00;0.00;;;;;;;;;;5071435;28;20213;-64
2021/05/19 05:00:04;;;;;;;5.20;0.97;;;;;;;;;;5073521;28;20232;-63
2021/05/19 05:02:31;;;;;;;0.00;0.00;;;;;;;;;;5074548;28;20207;-63
2021/05/19 05:04:57;;;;;;;0.00;0.00;;;;;;;;;;5073469;28;20211;-63
2021/05/19 05:07:24;;;;;;;0.00;0.00;;;;;;;;;;5066252;28;20182;-64
2021/05/19 05:09:51;;;;;;;1.30;1.20;;;;;;;;;;5069024;28;20211;-64
2021/05/19 05:12:18;;;;;;;0.00;0.00;;;;;;;;;;5070115;28;20182;-64
2021/05/19 05:14:44;;;;;;;0.00;0.00;;;;;;;;;;5070271;28;20643;-63
2021/05/19 05:17:10;;;;;;;0.00;0.00;;;;;;;;;;5072404;28;20957;-64
2021/05/19 05:19:37;;;;;;;0.90;0.47;;;;;;;;;;5070542;28;20225;-65
2021/05/19 05:22:04;;;;;;;0.00;0.00;;;;;;;;;;5073375;28;20532;-65
2021/05/19 05:24:30;;;;;;;0.43;0.20;;;;;;;;;;5075904;28;20198;-64
2021/05/19 05:26:57;;;;;;;0.10;0.10;;;;;;;;;;5074039;28;20285;-64
2021/05/19 05:29:23;;;;;;;0.00;0.00;;;;;;;;;;5080980;28;20186;-64
2021/05/19 05:31:50;;;;;;;0.50;0.50;;;;;;;;;;5072061;28;20190;-64
2021/05/19 05:34:16;;;;;;;0.00;0.00;;;;;;;;;;5074356;28;20281;-64
2021/05/19 05:36:44;;;;;;;0.37;0.30;;;;;;;;;;5062939;28;20201;-65
2021/05/19 05:39:10;;;;;;;0.00;0.00;;;;;;;;;;5074545;28;21036;-64
2021/05/19 05:41:37;;;;;;;0.00;0.00;;;;;;;;;;5075049;28;20181;-64
2021/05/19 05:44:04;;;;;;;0.37;0.37;;;;;;;;;;5077722;28;20186;-64
2021/05/19 05:46:30;;;;;;;0.00;0.00;;;;;;;;;;5081513;28;20426;-64
2021/05/19 05:48:58;;;;;;;0.00;0.00;;;;;;;;;;5079906;28;20194;-63
2021/05/19 05:51:25;;;;;;;1.50;0.67;;;;;;;;;;5079473;28;20198;-64
2021/05/19 05:53:52;;;;;;;1.07;0.57;;;;;;;;;;5079219;28;20194;-64
2021/05/19 05:56:18;;;;;;;5.00;4.80;;;;;;;;;;5080888;28;20194;-64
2021/05/19 05:58:45;;;;;;;0.00;0.00;;;;;;;;;;5080629;28;20229;-63
2021/05/19 06:01:11;;;;;;;0.10;0.10;;;;;;;;;;5079690;28;20742;-64
2021/05/19 06:03:38;;;;;;;3.20;0.50;;;;;;;;;;5077139;28;20502;-64
2021/05/19 06:06:05;;;;;;;0.10;0.10;;;;;;;;;;5078061;28;20218;-64
2021/05/19 06:08:31;;;;;;;0.00;0.00;;;;;;;;;;5080593;28;20190;-63
2021/05/19 06:10:58;;;;;;;0.77;0.47;;;;;;;;;;5079626;28;20194;-64
2021/05/19 06:13:25;;;;;;;2.57;2.40;;;;;;;;;;5081445;28;20297;-63
2021/05/19 06:15:52;;;;;;;0.00;0.00;;;;;;;;;;5080401;28;20261;-64
2021/05/19 06:18:18;;;;;;;0.00;0.00;;;;;;;;;;5078401;28;21396;-64
2021/05/19 06:20:45;;;;;;;1.60;1.50;;;;;;;;;;5075914;28;20201;-64
2021/05/19 06:23:11;;;;;;;1.20;1.10;;;;;;;;;;5084420;28;20194;-63
2021/05/19 06:25:38;;;;;;;0.00;0.00;;;;;;;;;;5077184;28;20201;-64
2021/05/19 06:28:04;;;;;;;0.00;0.00;;;;;;;;;;5073683;28;20328;-64
2021/05/19 06:30:31;;;;;;;10.07;1.37;;;;;;;;;;5076941;28;20788;-64
2021/05/19 06:32:57;;;;;;;0.00;0.00;;;;;;;;;;5074233;28;20190;-63
2021/05/19 06:35:24;;;;;;;0.20;0.20;;;;;;;;;;5080941;28;20177;-64
2021/05/19 06:37:50;;;;;;;0.00;0.00;;;;;;;;;;5076983;28;20213;-64
2021/05/19 06:40:17;;;;;;;0.00;0.00;;;;;;;;;;5072999;28;20284;-63
2021/05/19 06:42:43;;;;;;;0.40;0.40;;;;;;;;;;5072489;28;20927;-64
2021/05/19 06:45:10;;;;;;;0.17;0.13;;;;;;;;;;5079232;28;20296;-64
2021/05/19 06:47:37;;;;;;;0.07;0.07;;;;;;;;;;5077211;28;20178;-65
2021/05/19 06:50:04;;;;;;;0.03;0.03;;;;;;;;;;5078079;28;20373;-64
2021/05/19 06:52:30;;;;;;;0.00;0.00;;;;;;;;;;5077993;28;20316;-64
2021/05/19 06:54:57;;;;;;;0.20;0.20;;;;;;;;;;5079659;28;20197;-63
2021/05/19 06:57:23;;;;;;;0.00;0.00;;;;;;;;;;5079352;28;20197;-64
2021/05/19 06:59:50;;;;;;;0.00;0.00;;;;;;;;;;5075564;28;20355;-64
2021/05/19 07:02:17;;;;;;;2.73;0.30;;;;;;;;;;5076986;28;20190;-64
2021/05/19 07:04:43;;;;;;;0.00;0.00;;;;;;;;;;5078195;28;20230;-64
2021/05/19 07:07:10;;;;;;;0.00;0.00;;;;;;;;;;5078871;28;20209;-64
2021/05/19 07:09:36;;;;;;;0.90;0.60;;;;;;;;;;5077006;28;20196;-64
2021/05/19 07:12:03;;;;;;;0.00;0.00;;;;;;;;;;5078373;28;20190;-64
2021/05/19 07:14:32;;;;;;;0.00;0.00;;;;;;;;;;5080788;28;20193;-64
2021/05/19 07:16:58;;;;;;;0.00;0.00;;;;;;;;;;5075582;28;20194;-64
2021/05/19 07:19:25;;;;;;;7.03;6.40;;;;;;;;;;5074444;28;20274;-64
2021/05/19 07:21:52;;;;;;;0.63;0.63;;;;;;;;;;5071120;28;20660;-63
2021/05/19 07:24:19;;;;;;;0.20;0.20;;;;;;;;;;5076738;28;20189;-63
2021/05/19 07:26:47;;;;;;;0.00;0.00;;;;;;;;;;5076876;28;20190;-64
2021/05/19 07:29:14;;;;;;;0.00;0.00;;;;;;;;;;5074822;28;20209;-63
2021/05/19 07:31:41;;;;;;;0.23;0.23;;;;;;;;;;5074248;28;20194;-64
2021/05/19 07:34:08;;;;;;;0.20;0.20;;;;;;;;;;5077817;28;20192;-63
2021/05/19 07:36:34;;;;;;;0.00;0.00;;;;;;;;;;5076944;28;20177;-64
2021/05/19 07:39:02;;;;;;;0.40;0.40;;;;;;;;;;5076141;28;20229;-64
2021/05/19 07:41:29;;;;;;;0.00;0.00;;;;;;;;;;5076612;28;20189;-64
2021/05/19 07:43:55;;;;;;;1.60;1.50;;;;;;;;;;5078677;28;20774;-64
2021/05/19 07:46:22;;;;;;;0.87;0.53;;;;;;;;;;5077033;28;20284;-64
2021/05/19 07:48:48;;;;;;;0.00;0.00;;;;;;;;;;5071496;28;20196;-64
2021/05/19 07:51:16;;;;;;;0.00;0.00;;;;;;;;;;5075661;28;20185;-64
2021/05/19 07:53:42;;;;;;;0.00;0.00;;;;;;;;;;5075592;28;20640;-64
2021/05/19 07:58:46;;;;;;;0.53;0.53;;;;;;;;;;5077950;28;20261;-64
2021/05/19 08:01:43;;;;;;;0.87;0.17;;;;;;;;;;5076248;28;20193;-64
2021/05/19 08:04:11;;;;;;;9.73;2.77;;;;;;;;;;5072080;28;20232;-63
2021/05/19 08:06:38;;;;;;;2.00;0.83;;;;;;;;;;5076368;28;20250;-64
2021/05/19 08:09:05;;;;;;;0.20;0.20;;;;;;;;;;5073284;28;20200;-64
2021/05/19 08:11:33;;;;;;;0.00;0.00;;;;;;;;;;5072115;28;20627;-63
2021/05/19 08:14:00;;;;;;;0.53;0.50;;;;;;;;;;5072043;28;20415;-64
2021/05/19 08:16:27;;;;;;;0.40;0.40;;;;;;;;;;5072863;28;20274;-64
2021/05/19 08:18:53;;;;;;;2.80;0.83;;;;;;;;;;5073528;28;20202;-64
2021/05/19 08:21:20;;;;;;;0.00;0.00;;;;;;;;;;5072170;28;20617;-64
2021/05/19 08:23:46;;;;;;;0.30;0.30;;;;;;;;;;5071986;28;20215;-64
2021/05/19 08:26:13;;;;;;;0.00;0.00;;;;;;;;;;5073711;28;20187;-64
2021/05/19 08:28:40;;;;;;;3.37;0.93;;;;;;;;;;5078457;28;20201;-64
2021/05/19 08:31:08;;;;;;;1.33;0.67;;;;;;;;;;5076217;28;20363;-64
2021/05/19 08:33:34;;;;;;;0.97;0.40;;;;;;;;;;5076416;28;20189;-64
2021/05/19 08:36:01;;;;;;;0.23;0.23;;;;;;;;;;5073239;28;20198;-64
2021/05/19 08:38:27;;;;;;;0.00;0.00;;;;;;;;;;5073262;28;20276;-64
2021/05/19 13:20:32;;;;;;;2.17;1.07;;;;;;;;;;5078438;28;21315;-66
2021/05/19 13:23:03;;;;;;;2.83;2.47;;;;;;;;;;5071672;28;20230;-66
2021/05/19 13:25:31;;;;;;;13.47;0.97;;;;;;;;;;5076373;28;20325;-65
2021/05/19 13:27:58;;;;;;;0.00;0.00;;;;;;;;;;5075883;28;20207;-66
2021/05/19 13:30:27;;;;;;;0.97;0.37;;;;;;;;;;5075354;28;20189;-65
2021/05/19 13:33:21;;;;;;;9.97;3.77;;;;;;;;;;5078654;28;20195;-66
2021/05/19 13:38:33;;;;;;;3.23;2.80;;;;;;;;;;5060671;28;20288;-66
2021/05/19 13:40:59;;;;;;;2.73;1.10;;;;;;;;;;5080373;28;20701;-66
2021/05/19 13:43:26;;;;;;;6.80;2.07;;;;;;;;;;5075628;28;20183;-66
2021/05/19 13:45:52;;;;;;;7.60;1.27;;;;;;;;;;5061888;28;20266;-66
2021/05/19 13:48:19;;;;;;;5.03;2.87;;;;;;;;;;5059017;28;20177;-65
2021/05/19 13:50:46;;;;;;;0.93;0.33;;;;;;;;;;5064606;28;20196;-66
2021/05/19 13:53:12;;;;;;;4.13;2.23;;;;;;;;;;5063299;28;20704;-65
2021/05/19 13:55:39;;;;;;;0.67;0.67;;;;;;;;;;5064061;28;20676;-65
2021/05/19 13:58:05;;;;;;;1.97;1.53;;;;;;;;;;5072570;28;20261;-66
2021/05/19 14:00:32;;;;;;;0.83;0.67;;;;;;;;;;5078056;28;20771;-66
2021/05/19 14:02:59;;;;;;;1.00;0.83;;;;;;;;;;5065142;28;20187;-66
2021/05/19 14:05:27;;;;;;;0.23;0.23;;;;;;;;;;5088163;28;20217;-67
2021/05/19 14:07:54;;;;;;;12.70;2.67;;;;;;;;;;5085922;28;20205;-66
2021/05/19 14:10:23;;;;;;;0.00;0.00;;;;;;;;;;5088917;28;20178;-66
2021/05/19 14:12:53;;;;;;;4.07;2.47;;;;;;;;;;5066910;28;20185;-65
2021/05/19 14:15:25;;;;;;;1.20;0.90;;;;;;;;;;5070306;28;20275;-66
2021/05/19 14:28:41;;;;;;;1.23;0.83;;;;;;;;;;5070217;28;20250;-65
2021/05/19 14:31:07;;;;;;;1.20;0.40;;;;;;;;;;5053429;28;20291;-66
2021/05/19 14:33:34;;;;;;;0.37;0.37;;;;;;;;;;5053614;28;20182;-66
2021/05/19 15:00:37;;;;;;;0.80;0.30;;;;;;;;;;5057195;28;20207;-66
2021/05/19 15:03:04;;;;;;;0.67;0.67;;;;;;;;;;5063773;28;20184;-66
2021/05/19 15:05:32;;;;;;;9.77;1.57;;;;;;;;;;5045446;28;20202;-66
2021/05/19 15:07:59;;;;;;;2.47;1.23;;;;;;;;;;5048018;28;20215;-66
2021/05/19 15:10:26;;;;;;;9.47;2.03;;;;;;;;;;5046830;28;20612;-66
2021/05/19 15:12:54;;;;;;;0.70;0.70;;;;;;;;;;5053608;28;20197;-65
2021/05/19 15:15:21;;;;;;;6.63;1.03;;;;;;;;;;5062414;28;20908;-65
2021/05/19 15:17:49;;;;;;;11.43;1.23;;;;;;;;;;5063480;28;20181;-66
2021/05/19 15:20:17;;;;;;;1.13;0.80;;;;;;;;;;5062859;28;20229;-65
2021/05/19 15:22:45;;;;;;;1.40;1.30;;;;;;;;;;5061821;28;20190;-66
2021/05/19 15:25:13;;;;;;;1.03;0.57;;;;;;;;;;5061859;28;20300;-65
2021/05/19 15:27:40;;;;;;;0.50;0.50;;;;;;;;;;5062155;28;20210;-64
2021/05/19 15:30:08;;;;;;;10.33;1.77;;;;;;;;;;5062348;28;20193;-67
2021/05/19 15:32:37;;;;;;;2.33;1.90;;;;;;;;;;5062300;28;20277;-66
2021/05/19 15:35:04;;;;;;;0.83;0.83;;;;;;;;;;5062596;28;20231;-66
2021/05/19 15:37:31;;;;;;;6.80;1.10;;;;;;;;;;5062406;28;20213;-65
2021/05/19 15:39:59;;;;;;;1.43;0.37;;;;;;;;;;5062191;28;20251;-65
2021/05/19 15:42:25;;;;;;;0.30;0.30;;;;;;;;;;5054714;28;20714;-65
2021/05/19 15:44:54;;;;;;;1.53;1.10;;;;;;;;;;5051666;28;20221;-63
2021/05/19 15:47:21;;;;;;;8.00;2.57;;;;;;;;;;5053774;28;20267;-64
2021/05/19 15:49:48;;;;;;;4.03;1.50;;;;;;;;;;5055323;28;20247;-65
2021/05/19 15:52:15;;;;;;;1.10;0.77;;;;;;;;;;5048117;28;20206;-65
2021/05/19 15:54:41;;;;;;;2.30;1.30;;;;;;;;;;5059835;28;20194;-75
2021/05/19 15:57:08;;;;;;;1.60;0.97;;;;;;;;;;5063799;28;20698;-72
2021/05/19 15:59:35;;;;;;;6.43;1.67;;;;;;;;;;5061378;28;20922;-74
2021/05/19 16:02:04;;;;;;;1.73;0.97;;;;;;;;;;5047183;28;20187;-73
2021/05/19 16:04:32;;;;;;;0.53;0.53;;;;;;;;;;5042481;28;20187;-72
2021/05/19 16:07:00;;;;;;;0.87;0.70;;;;;;;;;;5045384;28;20305;-73
2021/05/19 16:09:27;;;;;;;5.43;3.27;;;;;;;;;;5047034;28;20190;-74
2021/05/19 16:11:57;;;;;;;12.47;5.03;;;;;;;;;;5057764;28;20285;-74
2021/05/19 16:14:25;;;;;;;2.07;1.70;;;;;;;;;;5050116;28;20578;-74
2021/05/19 16:16:53;;;;;;;1.57;0.63;;;;;;;;;;5044483;28;20914;-74
2021/05/19 16:19:20;;;;;;;0.87;0.70;;;;;;;;;;5055736;28;20324;-73
2021/05/19 16:21:47;;;;;;;3.23;1.33;;;;;;;;;;5046285;28;20195;-72
2021/05/19 16:24:15;;;;;;;2.63;0.60;;;;;;;;;;5041202;28;20191;-74
2021/05/19 16:26:43;;;;;;;16.00;1.87;;;;;;;;;;5046425;28;20201;-71
2021/05/19 16:29:34;;;;;;;7.20;2.87;;;;;;;;;;5046135;28;20183;-73
2021/05/19 16:32:01;;;;;;;0.60;0.60;;;;;;;;;;5045591;28;20226;-74
2021/05/19 16:34:32;;;;;;;4.13;1.83;;;;;;;;;;5051130;28;20178;-71
2021/05/19 16:37:01;;;;;;;1.40;1.30;;;;;;;;;;5062202;28;20182;-75
2021/05/19 16:39:30;;;;;;;4.37;2.60;;;;;;;;;;5061148;28;20264;-73
2021/05/19 16:42:06;;;;;;;1.13;1.03;;;;;;;;;;5061713;28;20702;-74
2021/05/19 16:44:35;;;;;;;4.50;1.83;;;;;;;;;;5060041;28;20822;-72
2021/05/19 16:47:02;;;;;;;2.10;0.70;;;;;;;;;;5058444;28;20267;-75
2021/05/19 16:49:31;;;;;;;0.53;0.53;;;;;;;;;;5051909;28;20756;-75
2021/05/19 16:52:03;;;;;;;6.50;2.00;;;;;;;;;;5061326;28;20194;-73
2021/05/19 16:54:34;;;;;;;0.40;0.40;;;;;;;;;;5059380;28;20259;-72
2021/05/19 16:57:03;;;;;;;34.70;4.10;;;;;;;;;;5056136;28;20201;-72
2021/05/19 16:59:33;;;;;;;6.70;2.20;;;;;;;;;;5046301;28;20226;-74
2021/05/19 17:07:16;;;;;;;3.33;1.80;;;;;;;;;;5041660;28;20271;-73
2021/05/19 17:09:45;;;;;;;1.37;1.23;;;;;;;;;;5051654;28;21641;-74
2021/05/19 17:12:16;;;;;;;5.73;2.07;;;;;;;;;;5046100;28;20228;-73
2021/05/19 17:14:43;;;;;;;5.37;1.60;;;;;;;;;;5058638;28;20198;-72
2021/05/19 17:17:11;;;;;;;2.90;2.00;;;;;;;;;;5060769;28;20218;-73
2021/05/19 17:19:39;;;;;;;4.13;1.80;;;;;;;;;;5055046;28;20254;-73
2021/05/19 17:22:07;;;;;;;6.80;2.00;;;;;;;;;;5062010;28;20189;-73
2021/05/19 17:24:35;;;;;;;2.93;2.47;;;;;;;;;;5061732;28;20189;-73
2021/05/19 17:27:03;;;;;;;2.77;1.83;;;;;;;;;;5059455;28;20776;-74
2021/05/19 17:29:31;;;;;;;0.30;0.30;;;;;;;;;;5046240;28;20277;-71
2021/05/19 17:31:58;;;;;;;0.73;0.70;;;;;;;;;;5045162;28;20189;-73
2021/05/19 17:34:26;;;;;;;1.87;1.43;;;;;;;;;;5061575;28;20192;-75
2021/05/19 17:36:55;;;;;;;7.40;1.20;;;;;;;;;;5061369;28;20280;-74
2021/05/19 17:39:23;;;;;;;5.03;1.13;;;;;;;;;;5048309;28;20308;-74
2021/05/19 17:41:51;;;;;;;0.67;0.43;;;;;;;;;;5058780;28;20214;-75
2021/05/19 17:44:20;;;;;;;8.63;1.83;;;;;;;;;;5047234;28;20202;-73
2021/05/19 17:46:46;;;;;;;8.13;1.93;;;;;;;;;;5078385;28;20219;-73
2021/05/19 17:49:13;;;;;;;0.43;0.43;;;;;;;;;;5063313;28;20201;-73
2021/05/19 17:51:41;;;;;;;0.80;0.50;;;;;;;;;;5046811;28;20199;-73
2021/05/19 17:54:09;;;;;;;3.60;1.37;;;;;;;;;;5054432;28;20236;-73
2021/05/19 17:56:38;;;;;;;1.57;0.83;;;;;;;;;;5043929;28;20195;-73
2021/05/19 17:59:06;;;;;;;2.37;1.30;;;;;;;;;;5048352;28;20217;-72
2021/05/19 18:01:40;;;;;;;0.30;0.30;;;;;;;;;;5052266;28;20638;-73
2021/05/19 18:04:09;;;;;;;3.30;1.67;;;;;;;;;;5044510;28;20185;-71
2021/05/19 18:06:42;;;;;;;4.23;2.13;;;;;;;;;;5055352;28;20918;-75
2021/05/19 18:09:10;;;;;;;2.17;1.33;;;;;;;;;;5048529;28;20829;-73
2021/05/19 18:11:41;;;;;;;7.17;1.50;;;;;;;;;;5051231;28;20575;-73
2021/05/19 18:14:09;;;;;;;3.53;2.33;;;;;;;;;;5051644;28;20198;-73
2021/05/19 18:16:37;;;;;;;0.30;0.30;;;;;;;;;;5049101;28;20628;-72
2021/05/19 18:19:19;;;;;;;2.07;0.80;;;;;;;;;;5063113;28;20226;-74
2021/05/19 18:21:48;;;;;;;0.63;0.63;;;;;;;;;;5044931;28;20556;-73
2021/05/19 18:24:16;;;;;;;8.43;6.10;;;;;;;;;;5049703;28;20183;-73
2021/05/19 18:26:45;;;;;;;0.10;0.10;;;;;;;;;;5050685;28;20182;-72
2021/05/19 18:29:22;;;;;;;9.43;4.30;;;;;;;;;;5049679;28;20646;-72
2021/05/19 18:31:59;;;;;;;0.87;0.83;;;;;;;;;;5055345;28;20193;-72
2021/05/19 18:37:14;;;;;;;6.40;1.17;;;;;;;;;;5062308;28;20196;-74
2021/05/19 18:39:43;;;;;;;0.20;0.20;;;;;;;;;;5048368;28;20213;-73
2021/05/19 18:42:11;;;;;;;4.27;2.00;;;;;;;;;;5043479;28;20194;-72
2021/05/19 18:44:38;;;;;;;2.80;1.60;;;;;;;;;;5051807;28;20331;-73
2021/05/19 18:47:08;;;;;;;1.80;1.07;;;;;;;;;;5064964;28;20178;-75
2021/05/19 18:49:37;;;;;;;1.60;1.50;;;;;;;;;;5064699;28;20746;-73
2021/05/19 18:52:05;;;;;;;0.30;0.20;;;;;;;;;;5065050;28;20190;-75
2021/05/19 18:54:33;;;;;;;3.43;2.20;;;;;;;;;;5050927;28;20393;-73
2021/05/19 18:57:02;;;;;;;0.33;0.33;;;;;;;;;;5047290;28;20198;-74
2021/05/19 18:59:29;;;;;;;5.13;4.07;;;;;;;;;;5056199;28;20225;-75
2021/05/19 19:01:59;;;;;;;4.90;1.70;;;;;;;;;;5063033;28;20255;-75
2021/05/19 19:04:27;;;;;;;3.20;1.13;;;;;;;;;;5048212;28;20212;-73
2021/05/19 19:06:55;;;;;;;3.23;1.47;;;;;;;;;;5054409;28;20203;-73
2021/05/19 19:09:22;;;;;;;6.20;0.67;;;;;;;;;;5048700;28;20205;-74
2021/05/19 19:11:51;;;;;;;1.70;0.47;;;;;;;;;;5048626;28;20242;-65
2021/05/19 19:14:24;;;;;;;0.80;0.80;;;;;;;;;;5048744;28;20186;-65
2021/05/19 19:16:52;;;;;;;0.87;0.83;;;;;;;;;;5050066;28;20221;-64
2021/05/19 19:19:25;;;;;;;5.03;1.10;;;;;;;;;;5054222;28;20239;-64
2021/05/19 19:21:52;;;;;;;0.73;0.60;;;;;;;;;;5051543;28;20185;-64
2021/05/19 19:24:20;;;;;;;0.00;0.00;;;;;;;;;;5048089;28;20192;-65
2021/05/19 19:26:51;;;;;;;2.83;1.40;;;;;;;;;;5050244;28;20251;-64
2021/05/19 19:29:21;;;;;;;4.50;1.70;;;;;;;;;;5051635;28;20197;-64
2021/05/19 19:31:49;;;;;;;0.93;0.43;;;;;;;;;;5052755;28;20191;-64
2021/05/19 19:34:16;;;;;;;4.03;2.47;;;;;;;;;;5054550;28;21095;-64
2021/05/19 19:36:44;;;;;;;0.00;0.00;;;;;;;;;;5049377;28;20193;-64
2021/05/19 19:39:16;;;;;;;3.20;1.03;;;;;;;;;;5054267;28;20731;-64
2021/05/19 19:41:43;;;;;;;1.33;0.33;;;;;;;;;;5056024;28;20185;-64
2021/05/19 19:44:15;;;;;;;4.00;1.73;;;;;;;;;;5043472;28;20250;-64
2021/05/19 19:46:43;;;;;;;1.23;1.13;;;;;;;;;;5048977;28;20217;-63
2021/05/19 19:49:16;;;;;;;0.40;0.40;;;;;;;;;;5051997;28;20643;-65
2021/05/19 19:51:45;;;;;;;2.97;0.97;;;;;;;;;;5053105;28;20194;-64
2021/05/19 19:54:14;;;;;;;0.00;0.00;;;;;;;;;;5060496;28;20220;-63
2021/05/19 19:56:45;;;;;;;4.77;0.90;;;;;;;;;;5062894;28;20234;-64
2021/05/19 19:59:13;;;;;;;1.50;1.17;;;;;;;;;;5052865;28;21025;-64
2021/05/19 20:01:52;;;;;;;0.00;0.00;;;;;;;;;;5052703;28;20319;-64
2021/05/19 20:04:19;;;;;;;0.87;0.40;;;;;;;;;;5049757;28;20340;-64
2021/05/19 20:06:49;;;;;;;0.00;0.00;;;;;;;;;;5054145;28;20274;-63
2021/05/19 20:09:25;;;;;;;0.20;0.20;;;;;;;;;;5044674;28;20322;-76
2021/05/19 20:11:53;;;;;;;0.67;0.67;;;;;;;;;;5042597;28;20180;-77
2021/05/19 20:14:21;;;;;;;10.63;0.87;;;;;;;;;;5042757;28;20655;-73
2021/05/19 20:16:49;;;;;;;0.57;0.47;;;;;;;;;;5051026;28;20260;-77